createdAt,value
2018-03-11T00:00:35.480Z,0.00
2018-03-11T00:01:35.633Z,0.00
2018-03-11T00:02:35.895Z,0.00
2018-03-11T00:03:36.171Z,0.00
2018-03-11T00:04:36.423Z,0.00
2018-03-11T00:05:36.679Z,0.00
2018-03-11T00:06:36.889Z,0.00
2018-03-11T00:07:37.120Z,0.00
2018-03-11T00:08:37.371Z,0.00
2018-03-11T00:09:37.631Z,0.00
2018-03-11T00:10:37.888Z,0.00
2018-03-11T00:11:38.120Z,0.00
2018-03-11T00:12:38.351Z,0.00
2018-03-11T00:13:38.616Z,0.00
2018-03-11T00:14:38.917Z,0.00
2018-03-11T00:15:39.117Z,0.00
2018-03-11T00:16:39.399Z,0.00
2018-03-11T00:17:39.660Z,0.00
2018-03-11T00:18:39.908Z,0.00
2018-03-11T00:19:40.223Z,0.00
2018-03-11T00:20:40.422Z,0.00
2018-03-11T00:21:40.709Z,0.00
2018-03-11T00:22:40.888Z,0.00
2018-03-11T00:23:41.120Z,0.00
2018-03-11T00:24:41.481Z,0.00
2018-03-11T00:25:41.648Z,0.00
2018-03-11T00:26:41.963Z,0.00
2018-03-11T00:27:42.159Z,0.00
2018-03-11T00:28:42.444Z,0.00
2018-03-11T00:29:42.700Z,0.00
2018-03-11T00:30:42.867Z,0.00
2018-03-11T00:31:43.164Z,0.00
2018-03-11T00:32:43.522Z,0.00
2018-03-11T00:33:43.774Z,0.00
2018-03-11T00:34:44.165Z,0.00
2018-03-11T00:35:44.246Z,0.00
2018-03-11T00:36:44.524Z,0.00
2018-03-11T00:37:44.896Z,0.00
2018-03-11T00:38:45.034Z,0.00
2018-03-11T00:39:45.289Z,0.00
2018-03-11T00:40:45.642Z,0.00
2018-03-11T00:41:45.815Z,0.00
2018-03-11T00:42:46.161Z,0.00
2018-03-11T00:43:46.288Z,0.00
2018-03-11T00:44:49.662Z,0.00
2018-03-11T00:45:46.965Z,0.00
2018-03-11T00:46:47.455Z,0.00
2018-03-11T00:47:47.886Z,0.00
2018-03-11T00:48:47.840Z,0.00
2018-03-11T00:49:48.500Z,0.00
2018-03-11T00:50:48.632Z,0.00
2018-03-11T00:51:48.657Z,0.00
2018-03-11T00:52:49.015Z,0.00
2018-03-11T00:53:49.547Z,0.00
2018-03-11T00:54:49.562Z,0.00
2018-03-11T00:55:49.821Z,0.00
2018-03-11T00:56:52.393Z,0.00
2018-03-11T00:57:50.736Z,0.00
2018-03-11T00:58:50.933Z,0.00
2018-03-11T00:59:51.651Z,0.00
2018-03-11T01:00:51.284Z,0.00
2018-03-11T01:01:51.670Z,0.00
2018-03-11T01:02:51.922Z,0.00
2018-03-11T01:03:52.040Z,0.00
2018-03-11T01:04:52.281Z,0.00
2018-03-11T01:05:52.539Z,0.00
2018-03-11T01:06:52.811Z,0.00
2018-03-11T01:07:53.114Z,0.00
2018-03-11T01:08:53.262Z,0.00
2018-03-11T01:09:53.547Z,0.00
2018-03-11T01:10:53.916Z,0.00
2018-03-11T01:11:54.039Z,0.00
2018-03-11T01:12:54.322Z,0.00
2018-03-11T01:13:54.709Z,0.00
2018-03-11T01:14:54.907Z,0.00
2018-03-11T01:15:55.234Z,0.00
2018-03-11T01:16:55.390Z,0.00
2018-03-11T01:17:55.613Z,0.00
2018-03-11T01:18:55.890Z,0.00
2018-03-11T01:19:56.140Z,0.00
2018-03-11T01:20:56.374Z,0.00
2018-03-11T01:21:56.710Z,0.00
2018-03-11T01:22:56.904Z,0.00
2018-03-11T01:23:57.163Z,0.00
2018-03-11T01:24:57.425Z,0.00
2018-03-11T01:25:57.637Z,0.00
2018-03-11T01:26:57.939Z,0.00
2018-03-11T01:27:58.128Z,0.00
2018-03-11T01:28:58.409Z,0.00
2018-03-11T01:29:58.637Z,0.00
2018-03-11T01:30:58.868Z,0.00
2018-03-11T01:31:59.128Z,0.00
2018-03-11T01:32:59.375Z,0.00
2018-03-11T01:33:59.600Z,0.00
2018-03-11T01:34:59.875Z,0.00
2018-03-11T01:36:00.146Z,0.00
2018-03-11T01:37:00.348Z,0.00
2018-03-11T01:38:00.626Z,0.00
2018-03-11T01:39:00.869Z,0.00
2018-03-11T01:40:01.094Z,0.00
2018-03-11T01:41:01.393Z,0.00
2018-03-11T01:42:01.684Z,0.00
2018-03-11T01:43:01.990Z,0.00
2018-03-11T01:44:02.115Z,0.00
2018-03-11T01:45:02.438Z,0.00
2018-03-11T01:46:02.593Z,0.00
2018-03-11T01:47:02.865Z,0.00
2018-03-11T01:48:03.090Z,0.00
2018-03-11T01:49:03.360Z,0.00
2018-03-11T01:50:03.596Z,0.00
2018-03-11T01:51:03.826Z,0.00
2018-03-11T01:52:04.078Z,0.00
2018-03-11T01:53:04.292Z,0.00
2018-03-11T01:54:04.555Z,0.00
2018-03-11T01:55:04.812Z,0.00
2018-03-11T01:56:05.157Z,0.00
2018-03-11T01:57:05.375Z,0.00
2018-03-11T01:58:05.524Z,0.00
2018-03-11T01:59:05.767Z,0.00
2018-03-11T02:00:06.212Z,0.00
2018-03-11T02:01:06.410Z,0.00
2018-03-11T02:02:06.540Z,0.00
2018-03-11T02:03:06.848Z,0.00
2018-03-11T02:04:07.178Z,0.00
2018-03-11T02:05:07.300Z,0.00
2018-03-11T02:06:07.542Z,0.00
2018-03-11T02:07:07.797Z,0.00
2018-03-11T02:08:08.032Z,0.00
2018-03-11T02:09:08.307Z,0.00
2018-03-11T02:10:08.555Z,0.00
2018-03-11T02:11:08.808Z,0.00
2018-03-11T02:12:09.024Z,0.00
2018-03-11T02:13:09.278Z,0.00
2018-03-11T02:14:09.549Z,0.00
2018-03-11T02:15:09.761Z,0.00
2018-03-11T02:16:10.023Z,0.00
2018-03-11T02:17:10.279Z,0.00
2018-03-11T02:18:10.556Z,0.00
2018-03-11T02:19:10.772Z,0.00
2018-03-11T02:20:11.000Z,0.00
2018-03-11T02:21:11.269Z,0.00
2018-03-11T02:22:11.516Z,0.00
2018-03-11T02:23:11.735Z,0.00
2018-03-11T02:24:11.998Z,0.00
2018-03-11T02:25:12.356Z,0.00
2018-03-11T02:26:12.662Z,0.00
2018-03-11T02:27:12.928Z,0.00
2018-03-11T02:28:13.143Z,0.00
2018-03-11T02:29:13.411Z,0.00
2018-03-11T02:30:13.661Z,0.00
2018-03-11T02:31:13.903Z,0.00
2018-03-11T02:32:14.141Z,0.00
2018-03-11T02:33:14.460Z,0.00
2018-03-11T02:34:14.694Z,0.00
2018-03-11T02:35:14.900Z,0.00
2018-03-11T02:36:15.163Z,0.00
2018-03-11T02:37:15.469Z,0.00
2018-03-11T02:38:15.663Z,0.00
2018-03-11T02:39:15.892Z,0.00
2018-03-11T02:40:16.138Z,0.00
2018-03-11T02:41:16.379Z,0.00
2018-03-11T02:42:16.621Z,0.00
2018-03-11T02:43:16.887Z,0.00
2018-03-11T02:44:17.142Z,0.00
2018-03-11T02:45:17.353Z,0.00
2018-03-11T02:46:17.619Z,0.00
2018-03-11T02:47:17.840Z,0.00
2018-03-11T02:48:18.103Z,0.00
2018-03-11T02:49:18.340Z,0.00
2018-03-11T02:50:18.611Z,0.00
2018-03-11T02:51:18.844Z,0.00
2018-03-11T02:52:19.087Z,0.00
2018-03-11T02:53:19.333Z,0.00
2018-03-11T02:54:19.571Z,0.00
2018-03-11T02:55:19.829Z,0.00
2018-03-11T02:56:20.055Z,0.00
2018-03-11T02:57:20.357Z,0.00
2018-03-11T02:58:20.615Z,0.00
2018-03-11T02:59:20.852Z,0.00
2018-03-11T03:00:21.089Z,0.00
2018-03-11T03:01:21.339Z,0.00
2018-03-11T03:02:21.580Z,0.00
2018-03-11T03:03:21.885Z,0.00
2018-03-11T03:04:22.091Z,0.00
2018-03-11T03:05:22.339Z,0.00
2018-03-11T03:06:22.605Z,0.00
2018-03-11T03:07:22.858Z,0.00
2018-03-11T03:08:23.188Z,0.00
2018-03-11T03:09:23.356Z,0.00
2018-03-11T03:10:23.587Z,0.00
2018-03-11T03:11:23.825Z,0.00
2018-03-11T03:12:24.095Z,0.00
2018-03-11T03:13:24.347Z,0.00
2018-03-11T03:14:24.607Z,0.00
2018-03-11T03:15:24.846Z,0.00
2018-03-11T03:16:25.100Z,0.00
2018-03-11T03:17:25.361Z,0.00
2018-03-11T03:18:25.595Z,0.00
2018-03-11T03:19:25.812Z,0.00
2018-03-11T03:20:26.138Z,0.00
2018-03-11T03:21:26.347Z,0.00
2018-03-11T03:22:26.656Z,0.00
2018-03-11T03:23:26.881Z,0.00
2018-03-11T03:24:27.065Z,0.00
2018-03-11T03:25:27.305Z,0.00
2018-03-11T03:26:27.562Z,0.00
2018-03-11T03:27:27.812Z,0.00
2018-03-11T03:28:28.050Z,0.00
2018-03-11T03:29:28.286Z,0.00
2018-03-11T03:30:28.677Z,0.00
2018-03-11T03:31:28.978Z,0.00
2018-03-11T03:32:29.266Z,0.00
2018-03-11T03:33:29.486Z,0.00
2018-03-11T03:34:29.751Z,0.00
2018-03-11T03:35:30.024Z,0.00
2018-03-11T03:36:30.309Z,0.00
2018-03-11T03:37:30.556Z,0.00
2018-03-11T03:38:30.864Z,0.00
2018-03-11T03:39:31.088Z,0.00
2018-03-11T03:40:31.294Z,0.00
2018-03-11T03:41:31.566Z,0.00
2018-03-11T03:42:31.819Z,0.00
2018-03-11T03:43:32.205Z,0.00
2018-03-11T03:44:32.387Z,0.00
2018-03-11T03:45:32.710Z,0.00
2018-03-11T03:46:32.852Z,0.00
2018-03-11T03:47:33.072Z,0.00
2018-03-11T03:48:33.303Z,0.00
2018-03-11T03:49:33.674Z,0.00
2018-03-11T03:50:33.837Z,0.00
2018-03-11T03:51:34.080Z,0.00
2018-03-11T03:52:34.328Z,0.00
2018-03-11T03:53:34.614Z,0.00
2018-03-11T03:54:34.834Z,0.00
2018-03-11T03:55:35.083Z,0.00
2018-03-11T03:56:35.335Z,0.00
2018-03-11T03:57:35.584Z,0.00
2018-03-11T03:58:35.828Z,0.00
2018-03-11T03:59:36.100Z,0.00
2018-03-11T04:00:36.352Z,0.00
2018-03-11T04:01:36.621Z,0.00
2018-03-11T04:02:36.875Z,0.00
2018-03-11T04:03:37.049Z,0.00
2018-03-11T04:04:37.305Z,0.00
2018-03-11T04:05:37.593Z,0.00
2018-03-11T04:06:37.790Z,0.00
2018-03-11T04:07:38.038Z,0.00
2018-03-11T04:08:38.283Z,0.00
2018-03-11T04:09:38.647Z,0.00
2018-03-11T04:10:38.804Z,0.00
2018-03-11T04:11:39.016Z,0.00
2018-03-11T04:12:39.248Z,0.00
2018-03-11T04:13:39.516Z,0.00
2018-03-11T04:14:39.774Z,0.00
2018-03-11T04:15:40.004Z,0.00
2018-03-11T04:16:40.277Z,0.00
2018-03-11T04:17:40.526Z,0.00
2018-03-11T04:18:40.817Z,0.00
2018-03-11T04:19:41.078Z,0.00
2018-03-11T04:20:41.406Z,0.00
2018-03-11T04:21:41.562Z,0.00
2018-03-11T04:22:41.885Z,0.00
2018-03-11T04:23:42.107Z,0.00
2018-03-11T04:24:42.404Z,0.00
2018-03-11T04:25:42.605Z,0.00
2018-03-11T04:26:42.930Z,0.00
2018-03-11T04:27:43.072Z,0.00
2018-03-11T04:28:43.299Z,0.00
2018-03-11T04:29:43.584Z,0.00
2018-03-11T04:30:43.863Z,0.00
2018-03-11T04:31:44.114Z,0.00
2018-03-11T04:32:44.343Z,0.00
2018-03-11T04:33:44.542Z,0.00
2018-03-11T04:34:44.877Z,0.00
2018-03-11T04:35:45.053Z,0.00
2018-03-11T04:36:45.332Z,0.00
2018-03-11T04:37:45.543Z,0.00
2018-03-11T04:38:45.880Z,0.00
2018-03-11T04:39:46.113Z,0.00
2018-03-11T04:40:46.336Z,0.00
2018-03-11T04:41:46.664Z,0.00
2018-03-11T04:42:46.815Z,0.00
2018-03-11T04:43:47.083Z,0.00
2018-03-11T04:44:47.305Z,0.00
2018-03-11T04:45:47.551Z,0.00
2018-03-11T04:46:47.876Z,0.00
2018-03-11T04:47:48.037Z,0.00
2018-03-11T04:48:48.419Z,0.00
2018-03-11T04:49:48.526Z,0.00
2018-03-11T04:50:48.836Z,0.00
2018-03-11T04:51:49.067Z,0.00
2018-03-11T04:52:49.264Z,0.00
2018-03-11T04:53:49.552Z,0.00
2018-03-11T04:54:49.795Z,0.00
2018-03-11T04:55:50.030Z,0.00
2018-03-11T04:56:50.330Z,0.00
2018-03-11T04:57:50.574Z,0.00
2018-03-11T04:58:50.786Z,0.00
2018-03-11T04:59:51.000Z,0.00
2018-03-11T05:00:51.280Z,0.00
2018-03-11T05:01:51.529Z,0.00
2018-03-11T05:02:51.801Z,0.00
2018-03-11T05:03:52.050Z,0.00
2018-03-11T05:04:52.245Z,0.00
2018-03-11T05:05:52.542Z,0.00
2018-03-11T05:06:52.822Z,0.00
2018-03-11T05:07:53.098Z,0.00
2018-03-11T05:08:53.335Z,0.00
2018-03-11T05:09:53.594Z,0.00
2018-03-11T05:10:53.805Z,0.00
2018-03-11T05:11:54.079Z,0.00
2018-03-11T05:12:54.330Z,0.00
2018-03-11T05:13:54.564Z,0.00
2018-03-11T05:14:54.757Z,0.00
2018-03-11T05:15:54.998Z,0.00
2018-03-11T05:16:55.272Z,0.00
2018-03-11T05:17:55.568Z,4.00
2018-03-11T05:18:55.734Z,4.00
2018-03-11T05:19:56.023Z,0.00
2018-03-11T05:20:56.241Z,4.00
2018-03-11T05:21:56.531Z,4.00
2018-03-11T05:22:56.755Z,4.00
2018-03-11T05:23:57.013Z,4.00
2018-03-11T05:24:57.239Z,8.00
2018-03-11T05:25:57.516Z,12.00
2018-03-11T05:26:57.735Z,12.00
2018-03-11T05:27:57.965Z,16.00
2018-03-11T05:28:58.215Z,24.00
2018-03-11T05:29:58.455Z,28.00
2018-03-11T05:30:58.712Z,32.00
2018-03-11T05:31:58.961Z,32.00
2018-03-11T05:32:59.212Z,36.00
2018-03-11T05:33:59.520Z,40.00
2018-03-11T05:34:59.713Z,52.00
2018-03-11T05:35:59.953Z,64.00
2018-03-11T05:37:00.337Z,80.00
2018-03-11T05:38:00.517Z,100.00
2018-03-11T05:39:00.752Z,120.00
2018-03-11T05:40:00.944Z,136.00
2018-03-11T05:41:01.270Z,156.00
2018-03-11T05:42:01.674Z,164.00
2018-03-11T05:43:01.796Z,168.00
2018-03-11T05:44:02.031Z,192.00
2018-03-11T05:45:02.212Z,208.00
2018-03-11T05:46:02.434Z,228.00
2018-03-11T05:47:02.668Z,252.00
2018-03-11T05:48:02.901Z,284.00
2018-03-11T05:49:03.170Z,308.00
2018-03-11T05:50:03.459Z,332.00
2018-03-11T05:51:03.667Z,364.00
2018-03-11T05:52:03.907Z,388.00
2018-03-11T05:53:04.206Z,404.00
2018-03-11T05:54:04.461Z,420.00
2018-03-11T05:55:04.643Z,420.00
2018-03-11T05:56:04.881Z,428.00
2018-03-11T05:57:05.134Z,432.00
2018-03-11T05:58:05.430Z,440.00
2018-03-11T05:59:05.638Z,460.00
2018-03-11T06:00:06.224Z,488.00
2018-03-11T06:01:06.417Z,520.00
2018-03-11T06:02:06.632Z,548.00
2018-03-11T06:03:06.876Z,588.00
2018-03-11T06:04:07.072Z,656.00
2018-03-11T06:05:07.342Z,728.00
2018-03-11T06:06:07.602Z,832.00
2018-03-11T06:07:07.827Z,924.00
2018-03-11T06:08:08.101Z,924.00
2018-03-11T06:09:08.367Z,936.00
2018-03-11T06:10:08.579Z,992.00
2018-03-11T06:11:08.830Z,1048.00
2018-03-11T06:12:09.057Z,1052.00
2018-03-11T06:13:09.306Z,1036.00
2018-03-11T06:14:09.554Z,1028.00
2018-03-11T06:15:09.823Z,1024.00
2018-03-11T06:16:10.039Z,1124.00
2018-03-11T06:17:10.294Z,1240.00
2018-03-11T06:18:10.525Z,1376.00
2018-03-11T06:19:10.771Z,1564.00
2018-03-11T06:20:11.062Z,1712.00
2018-03-11T06:21:11.342Z,1652.00
2018-03-11T06:22:11.576Z,1564.00
2018-03-11T06:23:11.779Z,1536.00
2018-03-11T06:24:11.997Z,1544.00
2018-03-11T06:25:12.225Z,1548.00
2018-03-11T06:26:12.499Z,1508.00
2018-03-11T06:27:12.794Z,1660.00
2018-03-11T06:28:13.005Z,1572.00
2018-03-11T06:29:13.303Z,1600.00
2018-03-11T06:30:13.478Z,1412.00
2018-03-11T06:31:13.698Z,1316.00
2018-03-11T06:32:13.974Z,1316.00
2018-03-11T06:33:14.216Z,1396.00
2018-03-11T06:34:14.499Z,1580.00
2018-03-11T06:35:14.731Z,1508.00
2018-03-11T06:36:14.983Z,1580.00
2018-03-11T06:37:15.242Z,1632.00
2018-03-11T06:38:15.474Z,1652.00
2018-03-11T06:39:15.732Z,1896.00
2018-03-11T06:40:15.943Z,2656.00
2018-03-11T06:41:16.204Z,2708.00
2018-03-11T06:42:16.495Z,2688.00
2018-03-11T06:43:16.770Z,2784.00
2018-03-11T06:44:17.044Z,2800.00
2018-03-11T06:45:17.197Z,2924.00
2018-03-11T06:46:17.582Z,3152.00
2018-03-11T06:47:17.808Z,3308.00
2018-03-11T06:48:18.029Z,3480.00
2018-03-11T06:49:18.258Z,2728.00
2018-03-11T06:50:18.676Z,3352.00
2018-03-11T06:51:18.835Z,3824.00
2018-03-11T06:52:19.187Z,3180.00
2018-03-11T06:53:19.469Z,3112.00
2018-03-11T06:54:19.634Z,3000.00
2018-03-11T06:55:19.821Z,2964.00
2018-03-11T06:56:20.036Z,2928.00
2018-03-11T06:57:20.364Z,3060.00
2018-03-11T06:58:20.542Z,3412.00
2018-03-11T06:59:20.783Z,3488.00
2018-03-11T07:00:21.033Z,3520.00
2018-03-11T07:01:21.265Z,3792.00
2018-03-11T07:02:21.506Z,4764.00
2018-03-11T07:03:21.804Z,4824.00
2018-03-11T07:04:22.017Z,4140.00
2018-03-11T07:05:22.288Z,3352.00
2018-03-11T07:06:22.475Z,3160.00
2018-03-11T07:07:22.735Z,3140.00
2018-03-11T07:08:23.003Z,3124.00
2018-03-11T07:09:23.240Z,3128.00
2018-03-11T07:10:23.488Z,3204.00
2018-03-11T07:11:23.771Z,3320.00
2018-03-11T07:12:24.071Z,4968.00
2018-03-11T07:13:24.286Z,4924.00
2018-03-11T07:14:24.509Z,5872.00
2018-03-11T07:15:24.708Z,5984.00
2018-03-11T07:16:24.977Z,6100.00
2018-03-11T07:17:25.206Z,6024.00
2018-03-11T07:18:25.459Z,6072.00
2018-03-11T07:19:25.708Z,6472.00
2018-03-11T07:20:25.936Z,6456.00
2018-03-11T07:21:26.244Z,6372.00
2018-03-11T07:22:26.575Z,6080.00
2018-03-11T07:23:26.819Z,5724.00
2018-03-11T07:24:26.999Z,5520.00
2018-03-11T07:25:27.251Z,5312.00
2018-03-11T07:26:27.483Z,4760.00
2018-03-11T07:27:27.730Z,4620.00
2018-03-11T07:28:27.948Z,4716.00
2018-03-11T07:29:28.222Z,4604.00
2018-03-11T07:30:28.503Z,4364.00
2018-03-11T07:31:28.719Z,4236.00
2018-03-11T07:32:28.918Z,4132.00
2018-03-11T07:33:29.220Z,4280.00
2018-03-11T07:34:29.523Z,4412.00
2018-03-11T07:35:29.660Z,4516.00
2018-03-11T07:36:29.929Z,4436.00
2018-03-11T07:37:30.170Z,4596.00
2018-03-11T07:38:30.409Z,4700.00
2018-03-11T07:39:30.660Z,4920.00
2018-03-11T07:40:30.905Z,5092.00
2018-03-11T07:41:31.107Z,5200.00
2018-03-11T07:42:31.379Z,5244.00
2018-03-11T07:43:31.627Z,5236.00
2018-03-11T07:44:31.902Z,5212.00
2018-03-11T07:45:32.130Z,5272.00
2018-03-11T07:46:32.382Z,5320.00
2018-03-11T07:47:32.652Z,5432.00
2018-03-11T07:48:32.923Z,5420.00
2018-03-11T07:49:33.121Z,5736.00
2018-03-11T07:50:33.394Z,6192.00
2018-03-11T07:51:33.679Z,6364.00
2018-03-11T07:52:34.094Z,6436.00
2018-03-11T07:53:34.190Z,6556.00
2018-03-11T07:54:34.431Z,6544.00
2018-03-11T07:55:34.691Z,6512.00
2018-03-11T07:56:34.922Z,6412.00
2018-03-11T07:57:35.148Z,6108.00
2018-03-11T07:58:35.435Z,6036.00
2018-03-11T07:59:35.676Z,5920.00
2018-03-11T08:00:35.921Z,5780.00
2018-03-11T08:01:36.163Z,5740.00
2018-03-11T08:02:36.496Z,5728.00
2018-03-11T08:03:36.675Z,5560.00
2018-03-11T08:04:36.931Z,5156.00
2018-03-11T08:05:37.180Z,5196.00
2018-03-11T08:06:37.422Z,5520.00
2018-03-11T08:07:37.704Z,5676.00
2018-03-11T08:08:37.931Z,5692.00
2018-03-11T08:09:38.228Z,5644.00
2018-03-11T08:10:38.509Z,5560.00
2018-03-11T08:11:38.718Z,5408.00
2018-03-11T08:12:39.001Z,5260.00
2018-03-11T08:13:39.221Z,5064.00
2018-03-11T08:14:39.497Z,4940.00
2018-03-11T08:15:39.738Z,4896.00
2018-03-11T08:16:40.012Z,4988.00
2018-03-11T08:17:40.242Z,5148.00
2018-03-11T08:18:40.542Z,5240.00
2018-03-11T08:19:40.741Z,5300.00
2018-03-11T08:20:41.004Z,5372.00
2018-03-11T08:21:41.258Z,5424.00
2018-03-11T08:22:41.518Z,5500.00
2018-03-11T08:23:41.761Z,5536.00
2018-03-11T08:24:41.991Z,5368.00
2018-03-11T08:25:42.269Z,4984.00
2018-03-11T08:26:42.480Z,4604.00
2018-03-11T08:27:42.745Z,4200.00
2018-03-11T08:28:43.060Z,3808.00
2018-03-11T08:29:43.347Z,3528.00
2018-03-11T08:30:43.602Z,3412.00
2018-03-11T08:31:43.824Z,3480.00
2018-03-11T08:32:44.065Z,3652.00
2018-03-11T08:33:44.338Z,3908.00
2018-03-11T08:34:44.608Z,4208.00
2018-03-11T08:35:44.863Z,4496.00
2018-03-11T08:36:45.102Z,4712.00
2018-03-11T08:37:45.358Z,4928.00
2018-03-11T08:38:45.634Z,5328.00
2018-03-11T08:39:45.957Z,5772.00
2018-03-11T08:40:46.098Z,6300.00
2018-03-11T08:41:46.455Z,6808.00
2018-03-11T08:42:46.712Z,7320.00
2018-03-11T08:43:46.945Z,7600.00
2018-03-11T08:44:47.202Z,7960.00
2018-03-11T08:45:47.453Z,8236.00
2018-03-11T08:46:47.712Z,8460.00
2018-03-11T08:47:47.941Z,8632.00
2018-03-11T08:48:48.234Z,8680.00
2018-03-11T08:49:48.473Z,8520.00
2018-03-11T08:50:48.713Z,8140.00
2018-03-11T08:51:48.986Z,7444.00
2018-03-11T08:52:49.252Z,6780.00
2018-03-11T08:53:49.478Z,6288.00
2018-03-11T08:54:49.721Z,5944.00
2018-03-11T08:55:49.950Z,6000.00
2018-03-11T08:56:50.239Z,6788.00
2018-03-11T08:57:50.457Z,6772.00
2018-03-11T08:58:50.757Z,7356.00
2018-03-11T08:59:50.988Z,7720.00
2018-03-11T09:00:51.243Z,8464.00
2018-03-11T09:01:51.509Z,8016.00
2018-03-11T09:02:51.762Z,8744.00
2018-03-11T09:03:52.012Z,8544.00
2018-03-11T09:04:52.245Z,8196.00
2018-03-11T09:05:52.535Z,9144.00
2018-03-11T09:06:52.780Z,9160.00
2018-03-11T09:07:53.003Z,9944.00
2018-03-11T09:08:53.264Z,9408.00
2018-03-11T09:09:53.496Z,10124.00
2018-03-11T09:10:53.746Z,9588.00
2018-03-11T09:11:54.017Z,9640.00
2018-03-11T09:12:54.238Z,9344.00
2018-03-11T09:13:54.509Z,8780.00
2018-03-11T09:14:54.743Z,8068.00
2018-03-11T09:15:55.083Z,7348.00
2018-03-11T09:16:55.244Z,6688.00
2018-03-11T09:17:55.534Z,6152.00
2018-03-11T09:18:55.817Z,5696.00
2018-03-11T09:19:56.045Z,5400.00
2018-03-11T09:20:56.254Z,5172.00
2018-03-11T09:21:56.536Z,5064.00
2018-03-11T09:22:56.801Z,4932.00
2018-03-11T09:23:57.061Z,4872.00
2018-03-11T09:24:57.345Z,4768.00
2018-03-11T09:25:57.602Z,4720.00
2018-03-11T09:26:57.873Z,4688.00
2018-03-11T09:27:58.080Z,4716.00
2018-03-11T09:28:58.324Z,4748.00
2018-03-11T09:29:58.563Z,4804.00
2018-03-11T09:30:58.816Z,4672.00
2018-03-11T09:31:59.148Z,4744.00
2018-03-11T09:32:59.450Z,4836.00
2018-03-11T09:33:59.697Z,4856.00
2018-03-11T09:34:59.965Z,4864.00
2018-03-11T09:36:00.214Z,4896.00
2018-03-11T09:37:00.565Z,4864.00
2018-03-11T09:38:00.724Z,4956.00
2018-03-11T09:39:01.087Z,5004.00
2018-03-11T09:40:01.319Z,5152.00
2018-03-11T09:41:01.520Z,5228.00
2018-03-11T09:42:01.763Z,5256.00
2018-03-11T09:43:02.073Z,5360.00
2018-03-11T09:44:02.262Z,5548.00
2018-03-11T09:45:02.535Z,5676.00
2018-03-11T09:46:02.769Z,5044.00
2018-03-11T09:47:03.064Z,5864.00
2018-03-11T09:48:03.350Z,5524.00
2018-03-11T09:49:03.519Z,4600.00
2018-03-11T09:50:03.791Z,5448.00
2018-03-11T09:51:04.049Z,6080.00
2018-03-11T09:52:04.341Z,5848.00
2018-03-11T09:53:04.582Z,4220.00
2018-03-11T09:54:04.865Z,4200.00
2018-03-11T09:55:05.100Z,4092.00
2018-03-11T09:56:05.348Z,4128.00
2018-03-11T09:57:05.607Z,4996.00
2018-03-11T09:58:05.839Z,5756.00
2018-03-11T09:59:06.116Z,6808.00
2018-03-11T10:00:06.565Z,6632.00
2018-03-11T10:01:06.721Z,6468.00
2018-03-11T10:02:06.999Z,5588.00
2018-03-11T10:03:07.253Z,5168.00
2018-03-11T10:04:07.503Z,5684.00
2018-03-11T10:05:07.777Z,7000.00
2018-03-11T10:06:08.006Z,7184.00
2018-03-11T10:07:08.298Z,6880.00
2018-03-11T10:08:08.536Z,6464.00
2018-03-11T10:09:08.765Z,4832.00
2018-03-11T10:10:09.024Z,6100.00
2018-03-11T10:11:09.276Z,5784.00
2018-03-11T10:12:09.516Z,5432.00
2018-03-11T10:13:09.757Z,5188.00
2018-03-11T10:14:10.010Z,5036.00
2018-03-11T10:15:10.290Z,4944.00
2018-03-11T10:16:10.612Z,4836.00
2018-03-11T10:17:10.759Z,4844.00
2018-03-11T10:18:11.021Z,4740.00
2018-03-11T10:19:11.286Z,4720.00
2018-03-11T10:20:11.554Z,4704.00
2018-03-11T10:21:11.799Z,4732.00
2018-03-11T10:22:12.032Z,4752.00
2018-03-11T10:23:12.292Z,4644.00
2018-03-11T10:24:12.558Z,4680.00
2018-03-11T10:25:12.782Z,4736.00
2018-03-11T10:26:13.088Z,4764.00
2018-03-11T10:27:13.314Z,4836.00
2018-03-11T10:28:13.573Z,4848.00
2018-03-11T10:29:13.804Z,4904.00
2018-03-11T10:30:14.073Z,4916.00
2018-03-11T10:31:14.348Z,5040.00
2018-03-11T10:32:14.555Z,5220.00
2018-03-11T10:33:14.798Z,5440.00
2018-03-11T10:34:15.166Z,5472.00
2018-03-11T10:35:15.519Z,5544.00
2018-03-11T10:36:15.711Z,5764.00
2018-03-11T10:37:15.982Z,5784.00
2018-03-11T10:38:16.191Z,5948.00
2018-03-11T10:39:16.465Z,6028.00
2018-03-11T10:40:16.739Z,6008.00
2018-03-11T10:41:16.988Z,5836.00
2018-03-11T10:42:17.231Z,5728.00
2018-03-11T10:43:17.472Z,5648.00
2018-03-11T10:44:17.732Z,5812.00
2018-03-11T10:45:18.032Z,5136.00
2018-03-11T10:46:18.288Z,6124.00
2018-03-11T10:47:18.520Z,5476.00
2018-03-11T10:48:18.784Z,6760.00
2018-03-11T10:49:18.987Z,6188.00
2018-03-11T10:50:19.260Z,6352.00
2018-03-11T10:51:19.578Z,6240.00
2018-03-11T10:52:19.795Z,6448.00
2018-03-11T10:53:20.040Z,6692.00
2018-03-11T10:54:20.260Z,6884.00
2018-03-11T10:55:20.546Z,6984.00
2018-03-11T10:56:20.902Z,7104.00
2018-03-11T10:57:21.022Z,7376.00
2018-03-11T10:58:21.271Z,7620.00
2018-03-11T10:59:21.544Z,7696.00
2018-03-11T11:00:21.810Z,7952.00
2018-03-11T11:01:22.033Z,8316.00
2018-03-11T11:02:22.341Z,8508.00
2018-03-11T11:03:22.564Z,8432.00
2018-03-11T11:04:22.833Z,8208.00
2018-03-11T11:05:23.080Z,7868.00
2018-03-11T11:06:23.334Z,7732.00
2018-03-11T11:07:23.575Z,7812.00
2018-03-11T11:08:23.855Z,7712.00
2018-03-11T11:09:24.081Z,7600.00
2018-03-11T11:10:24.344Z,7324.00
2018-03-11T11:11:24.610Z,7252.00
2018-03-11T11:12:24.838Z,7148.00
2018-03-11T11:13:25.098Z,7012.00
2018-03-11T11:14:25.365Z,6752.00
2018-03-11T11:15:25.643Z,6300.00
2018-03-11T11:16:25.889Z,5960.00
2018-03-11T11:17:26.138Z,5616.00
2018-03-11T11:18:26.391Z,5544.00
2018-03-11T11:19:26.631Z,5684.00
2018-03-11T11:20:26.926Z,5972.00
2018-03-11T11:21:27.141Z,6304.00
2018-03-11T11:22:27.409Z,6584.00
2018-03-11T11:23:27.645Z,6476.00
2018-03-11T11:24:27.902Z,6236.00
2018-03-11T11:25:28.207Z,6020.00
2018-03-11T11:26:28.510Z,5900.00
2018-03-11T11:27:28.689Z,5796.00
2018-03-11T11:28:28.950Z,5856.00
2018-03-11T11:29:29.201Z,6260.00
2018-03-11T11:30:29.480Z,6576.00
2018-03-11T11:31:29.688Z,6632.00
2018-03-11T11:32:29.962Z,6692.00
2018-03-11T11:33:30.212Z,6828.00
2018-03-11T11:34:30.456Z,6936.00
2018-03-11T11:35:30.718Z,6976.00
2018-03-11T11:36:30.973Z,7000.00
2018-03-11T11:37:31.261Z,7008.00
2018-03-11T11:38:31.476Z,7036.00
2018-03-11T11:39:31.757Z,6988.00
2018-03-11T11:40:32.001Z,6740.00
2018-03-11T11:41:32.239Z,6352.00
2018-03-11T11:42:32.518Z,5952.00
2018-03-11T11:43:32.759Z,5508.00
2018-03-11T11:44:33.048Z,5012.00
2018-03-11T11:45:33.266Z,4704.00
2018-03-11T11:46:33.558Z,4764.00
2018-03-11T11:47:33.802Z,5024.00
2018-03-11T11:48:34.082Z,5244.00
2018-03-11T11:49:34.326Z,5184.00
2018-03-11T11:50:34.551Z,5020.00
2018-03-11T11:51:34.883Z,4984.00
2018-03-11T11:52:35.069Z,5304.00
2018-03-11T11:53:35.342Z,5784.00
2018-03-11T11:54:35.588Z,6168.00
2018-03-11T11:55:35.833Z,6264.00
2018-03-11T11:56:36.088Z,6072.00
2018-03-11T11:57:36.328Z,5992.00
2018-03-11T11:58:36.772Z,6228.00
2018-03-11T11:59:36.919Z,6480.00
2018-03-11T12:00:37.287Z,6472.00
2018-03-11T12:01:37.407Z,6232.00
2018-03-11T12:02:37.675Z,5764.00
2018-03-11T12:03:37.915Z,5420.00
2018-03-11T12:04:38.217Z,5492.00
2018-03-11T12:05:38.439Z,5932.00
2018-03-11T12:06:38.705Z,6072.00
2018-03-11T12:07:38.949Z,5596.00
2018-03-11T12:08:39.187Z,5120.00
2018-03-11T12:09:39.470Z,5176.00
2018-03-11T12:10:39.765Z,5340.00
2018-03-11T12:11:40.079Z,5356.00
2018-03-11T12:12:40.383Z,5560.00
2018-03-11T12:13:40.579Z,6232.00
2018-03-11T12:14:40.842Z,6952.00
2018-03-11T12:15:41.116Z,7516.00
2018-03-11T12:16:41.341Z,7576.00
2018-03-11T12:17:41.600Z,7276.00
2018-03-11T12:18:41.854Z,6904.00
2018-03-11T12:19:42.191Z,6680.00
2018-03-11T12:20:42.437Z,7272.00
2018-03-11T12:21:42.765Z,8440.00
2018-03-11T12:22:43.079Z,8976.00
2018-03-11T12:23:43.286Z,8672.00
2018-03-11T12:24:43.548Z,7988.00
2018-03-11T12:25:43.897Z,7620.00
2018-03-11T12:26:44.189Z,7544.00
2018-03-11T12:27:44.392Z,7204.00
2018-03-11T12:28:44.628Z,7108.00
2018-03-11T12:29:44.898Z,8020.00
2018-03-11T12:30:45.174Z,8928.00
2018-03-11T12:31:45.389Z,9892.00
2018-03-11T12:32:45.654Z,10424.00
2018-03-11T12:33:45.915Z,11288.00
2018-03-11T12:34:46.161Z,12160.00
2018-03-11T12:35:46.392Z,11100.00
2018-03-11T12:36:46.646Z,11344.00
2018-03-11T12:37:46.956Z,11284.00
2018-03-11T12:38:47.175Z,10824.00
2018-03-11T12:39:47.413Z,9696.00